Time;durP1;ratioP1;P1;durP2;ratioP2;P2;SDS_P1;SDS_P2;PMS_P1;PMS_P2;Temp;Humidity;BMP_temperature;BMP_pressure;BME280_temperature;BME280_humidity;BME280_pressure;Samples;Min_cycle;Max_cycle;Signal;HPM_P1;HPM_P2
2021/06/07 00:01:58;;;;;;;18.17;16.27;;;;;;;14.72;74.13;99221.87;124836;1093;64248;-82
2021/06/07 00:04:28;;;;;;;21.50;16.60;;;;;;;14.70;73.96;99221.13;124866;1093;64334;-80
2021/06/07 00:06:57;;;;;;;17.23;15.17;;;;;;;14.66;73.96;99227.70;124975;1093;64175;-81
2021/06/07 00:09:25;;;;;;;17.53;15.63;;;;;;;14.60;73.66;99228.20;124927;1093;64276;-80
2021/06/07 00:11:57;;;;;;;20.63;14.77;;;;;;;14.58;73.86;99230.15;124882;1093;64277;-81
2021/06/07 00:14:30;;;;;;;16.90;13.10;;;;;;;14.54;73.91;99223.34;124936;1093;64347;-80
2021/06/07 00:16:58;;;;;;;15.83;13.47;;;;;;;14.52;73.66;99218.05;124892;1093;64271;-81
2021/06/07 00:19:29;;;;;;;15.57;13.43;;;;;;;14.51;73.86;99221.72;124851;1093;64322;-81
2021/06/07 00:21:57;;;;;;;14.43;12.93;;;;;;;14.49;73.96;99218.30;124943;1093;64783;-80
2021/06/07 00:24:25;;;;;;;17.53;14.40;;;;;;;14.49;74.06;99221.83;124885;1092;64207;-81
2021/06/07 00:26:53;;;;;;;19.30;14.87;;;;;;;14.46;74.00;99221.23;124858;1093;64399;-81
2021/06/07 00:29:20;;;;;;;18.73;15.93;;;;;;;14.39;73.87;99220.85;124889;1093;64290;-80
2021/06/07 00:31:48;;;;;;;16.13;14.43;;;;;;;14.36;74.21;99220.25;124932;1093;64313;-81
2021/06/07 00:34:16;;;;;;;16.80;15.10;;;;;;;14.27;74.50;99227.20;124934;1093;64213;-81
2021/06/07 00:36:44;;;;;;;15.87;14.17;;;;;;;14.21;74.75;99231.19;124879;1093;64223;-81
2021/06/07 00:39:14;;;;;;;16.47;14.87;;;;;;;14.17;74.58;99227.05;124868;1092;64307;-81
2021/06/07 00:41:46;;;;;;;19.43;14.50;;;;;;;14.16;74.56;99232.52;124908;1092;64229;-80
2021/06/07 00:44:21;;;;;;;17.87;14.27;;;;;;;14.16;74.84;99227.16;124919;1093;64410;-81
2021/06/07 00:46:49;;;;;;;18.03;14.37;;;;;;;14.13;74.53;99230.09;124906;1093;64372;-81
2021/06/07 00:49:17;;;;;;;16.03;14.43;;;;;;;14.07;74.71;99225.22;124910;1092;64373;-81
2021/06/07 00:51:47;;;;;;;16.57;14.97;;;;;;;14.02;74.72;99229.09;124923;1093;64262;-81
2021/06/07 00:54:16;;;;;;;16.95;15.03;;;;;;;13.99;74.81;99226.66;124928;1093;64267;-81
2021/06/07 00:56:44;;;;;;;17.70;14.83;;;;;;;13.95;74.69;99225.17;124871;1093;64322;-82
2021/06/07 00:59:12;;;;;;;16.10;14.23;;;;;;;13.90;74.73;99227.38;124860;1093;64395;-81
2021/06/07 01:01:40;;;;;;;19.53;15.70;;;;;;;13.86;74.75;99227.72;124885;1092;64216;-81
2021/06/07 01:04:08;;;;;;;17.13;14.97;;;;;;;13.79;74.81;99221.97;124884;1093;64284;-81
2021/06/07 01:06:36;;;;;;;19.03;14.67;;;;;;;13.78;75.06;99222.95;124964;1093;64717;-80
2021/06/07 01:09:06;;;;;;;17.97;14.70;;;;;;;13.76;74.97;99224.89;124915;1091;64425;-81
2021/06/07 01:11:35;;;;;;;19.83;14.45;;;;;;;13.73;74.93;99219.77;124897;1093;64287;-80
2021/06/07 01:14:04;;;;;;;16.90;14.43;;;;;;;13.67;75.17;99217.57;124970;1093;64268;-82
2021/06/07 01:16:32;;;;;;;17.53;15.37;;;;;;;13.54;74.98;99215.81;124931;1093;64283;-82
2021/06/07 01:18:59;;;;;;;16.93;15.13;;;;;;;13.49;75.25;99219.81;124870;1093;64255;-80
2021/06/07 01:21:27;;;;;;;16.37;14.77;;;;;;;13.44;75.17;99219.30;124899;1093;64273;-80
2021/06/07 01:23:56;;;;;;;17.50;15.70;;;;;;;13.37;75.55;99214.38;124953;1093;64328;-81
2021/06/07 01:26:25;;;;;;;23.60;16.20;;;;;;;13.34;75.53;99213.77;124918;1093;65486;-81
2021/06/07 01:28:54;;;;;;;17.40;15.43;;;;;;;13.31;75.50;99209.50;125034;1092;64267;-81
2021/06/07 01:31:23;;;;;;;17.67;15.93;;;;;;;13.28;75.47;99211.56;124973;1093;64238;-80
2021/06/07 01:33:53;;;;;;;15.67;14.07;;;;;;;13.27;75.70;99209.84;125016;1093;64267;-81
2021/06/07 01:36:21;;;;;;;17.03;15.47;;;;;;;13.23;75.76;99209.19;125045;1093;64280;-83
2021/06/07 01:38:48;;;;;;;18.20;16.37;;;;;;;13.16;75.69;99206.13;125075;1093;64287;-83
2021/06/07 01:41:18;;;;;;;18.93;17.20;;;;;;;13.14;75.95;99212.56;125041;1093;64287;-80
2021/06/07 01:43:46;;;;;;;20.95;17.08;;;;;;;13.14;76.17;99215.24;124941;1093;64268;-81
2021/06/07 01:46:15;;;;;;;18.30;16.43;;;;;;;13.13;75.99;99205.48;124953;1091;64271;-81
2021/06/07 01:48:42;;;;;;;18.37;16.50;;;;;;;13.11;76.29;99210.97;124860;1092;64334;-81
2021/06/07 01:51:12;;;;;;;18.97;16.30;;;;;;;13.11;76.25;99212.77;124766;1093;64308;-81
2021/06/07 01:53:40;;;;;;;20.73;16.47;;;;;;;13.09;76.51;99207.55;124922;1093;64334;-81
2021/06/07 01:56:09;;;;;;;19.07;16.27;;;;;;;13.06;76.86;99210.45;124870;1093;64251;-81
2021/06/07 01:58:39;;;;;;;18.00;15.73;;;;;;;13.08;77.25;99208.49;124887;1093;64271;-81
2021/06/07 02:01:11;;;;;;;;;;;;;;;13.11;77.10;99213.64;124960;1093;64587;-80
2021/06/07 02:03:39;;;;;;;18.73;16.50;;;;;;;13.13;77.08;99211.69;124923;1093;64782;-81
2021/06/07 02:06:08;;;;;;;23.73;18.37;;;;;;;13.16;77.11;99213.28;124924;1093;64361;-81
2021/06/07 02:08:37;;;;;;;31.10;20.10;;;;;;;13.17;77.02;99207.83;124957;1093;64284;-82
2021/06/07 02:11:12;;;;;;;40.37;25.47;;;;;;;13.16;77.05;99203.45;124929;1093;64354;-82
2021/06/07 02:13:40;;;;;;;45.70;27.20;;;;;;;13.18;77.13;99212.20;124926;1093;64321;-81
2021/06/07 02:16:14;;;;;;;42.80;27.47;;;;;;;13.19;77.06;99213.05;124809;1093;64297;-81
2021/06/07 02:18:42;;;;;;;40.80;25.80;;;;;;;13.14;77.26;99216.09;124944;1092;64238;-82
2021/06/07 02:21:11;;;;;;;43.50;24.40;;;;;;;13.08;77.29;99218.34;124908;1092;64268;-80
2021/06/07 02:23:39;;;;;;;37.47;24.17;;;;;;;12.97;77.21;99211.11;124872;1093;64268;-81
2021/06/07 02:26:07;;;;;;;30.43;20.27;;;;;;;12.92;77.44;99219.47;124906;1093;64280;-80
2021/06/07 02:28:35;;;;;;;28.87;19.57;;;;;;;12.88;77.54;99220.67;124911;1093;64268;-81
2021/06/07 02:31:05;;;;;;;25.37;18.73;;;;;;;12.87;77.67;99226.13;124944;1093;64265;-80
2021/06/07 02:33:32;;;;;;;21.50;16.83;;;;;;;12.84;77.57;99221.85;124884;1093;64274;-81
2021/06/07 02:35:59;;;;;;;21.25;16.95;;;;;;;12.84;77.77;99224.52;124819;1093;64331;-81
2021/06/07 02:38:27;;;;;;;18.70;15.40;;;;;;;12.85;77.59;99215.55;124876;1093;64422;-81
2021/06/07 02:40:54;;;;;;;17.17;14.23;;;;;;;12.85;77.68;99212.88;124906;1093;64280;-81
2021/06/07 02:43:21;;;;;;;16.53;14.77;;;;;;;12.84;77.47;99219.17;124903;1093;64187;-81
2021/06/07 02:45:50;;;;;;;17.53;15.30;;;;;;;12.81;77.34;99208.70;124881;1093;64268;-80
2021/06/07 02:48:17;;;;;;;17.20;15.57;;;;;;;12.80;77.47;99216.86;124904;1093;64188;-80
2021/06/07 02:50:46;;;;;;;17.73;15.97;;;;;;;12.79;77.44;99223.16;124895;1093;64354;-80
2021/06/07 02:53:15;;;;;;;17.03;14.83;;;;;;;12.75;77.35;99222.53;124969;1093;64756;-81
2021/06/07 02:55:52;;;;;;;17.20;15.40;;;;;;;12.69;77.45;99229.19;124852;1093;64274;-81
2021/06/07 02:58:23;;;;;;;17.47;15.60;;;;;;;12.66;77.33;99221.36;124923;1093;64285;-80
2021/06/07 03:01:02;;;;;;;17.90;15.07;;;;;;;12.67;77.30;99224.91;124922;1093;64348;-80
2021/06/07 03:03:29;;;;;;;18.77;16.77;;;;;;;12.71;77.55;99221.88;124940;1093;64207;-82
2021/06/07 03:06:00;;;;;;;17.15;14.90;;;;;;;12.76;77.36;99220.70;124907;1093;64379;-82
2021/06/07 03:08:30;;;;;;;18.10;16.20;;;;;;;12.78;77.44;99230.33;124897;1093;64281;-81
2021/06/07 03:11:02;;;;;;;17.60;15.90;;;;;;;12.79;77.23;99224.00;124885;1093;64306;-81
2021/06/07 03:13:29;;;;;;;18.53;16.47;;;;;;;12.81;77.05;99221.23;124890;1093;64294;-81
2021/06/07 03:15:58;;;;;;;18.75;16.95;;;;;;;12.85;77.12;99225.38;124880;1093;64344;-81
2021/06/07 03:18:26;;;;;;;;;;;;;;;12.88;76.93;99231.38;124820;1093;64216;-81
2021/06/07 03:20:55;;;;;;;18.10;16.30;;;;;;;12.91;76.88;99225.80;124921;1093;64303;-80
2021/06/07 03:23:26;;;;;;;18.50;16.57;;;;;;;13.01;76.92;99230.49;124930;1093;64271;-80
2021/06/07 03:25:54;;;;;;;16.80;15.00;;;;;;;13.31;76.21;99225.56;124884;1093;64182;-81
2021/06/07 03:28:23;;;;;;;16.30;14.70;;;;;;;14.10;75.19;99219.61;124796;1093;64271;-80
2021/06/07 03:30:51;;;;;;;17.03;15.40;;;;;;;14.90;73.92;99225.75;124864;1093;64264;-80
2021/06/07 03:33:20;;;;;;;17.70;15.60;;;;;;;15.18;73.13;99228.84;124989;1093;64309;-81
2021/06/07 03:35:50;;;;;;;18.55;16.78;;;;;;;14.99;73.26;99224.13;124935;1093;64281;-80
2021/06/07 03:38:17;;;;;;;20.28;18.03;;;;;;;14.89;73.50;99225.86;124894;1093;64273;-81
2021/06/07 03:40:52;;;;;;;20.47;18.37;;;;;;;14.87;73.35;99228.66;124920;1093;64271;-80
2021/06/07 03:43:22;;;;;;;19.67;17.33;;;;;;;14.74;73.67;99227.94;124897;1093;64242;-81
2021/06/07 03:45:49;;;;;;;;;;;;;;;14.62;73.46;99232.47;124998;1093;64609;-82
2021/06/07 03:48:16;;;;;;;18.13;16.33;;;;;;;14.58;73.65;99232.83;124910;1093;64248;-80
2021/06/07 03:50:44;;;;;;;18.37;14.77;;;;;;;14.75;73.21;99231.50;124946;1093;64287;-81
2021/06/07 03:53:12;;;;;;;17.33;15.53;;;;;;;14.89;73.05;99231.22;124908;1093;64191;-82
2021/06/07 03:55:41;;;;;;;18.33;16.43;;;;;;;15.41;71.92;99229.63;124881;1093;64306;-81
2021/06/07 03:58:09;;;;;;;18.03;16.27;;;;;;;16.10;71.12;99226.50;124947;1093;64280;-81
2021/06/07 04:00:39;;;;;;;16.03;14.27;;;;;;;16.68;70.15;99234.02;124887;1093;64306;-80
2021/06/07 04:03:09;;;;;;;16.83;15.13;;;;;;;17.42;68.77;99232.81;124975;1092;64260;-81
2021/06/07 04:05:37;;;;;;;;;;;;;;;18.44;66.93;99230.45;124907;1093;64262;-80
2021/06/07 04:08:07;;;;;;;14.90;13.47;;;;;;;19.25;65.92;99227.11;124917;1093;64268;-81
2021/06/07 04:10:34;;;;;;;13.63;12.43;;;;;;;19.92;64.27;99222.18;124905;1093;64188;-80
2021/06/07 04:13:01;;;;;;;14.20;13.00;;;;;;;20.56;63.46;99225.51;124908;1093;64291;-81
2021/06/07 04:15:29;;;;;;;13.90;12.63;;;;;;;20.97;62.62;99218.42;124772;1093;64300;-80
2021/06/07 04:17:57;;;;;;;13.40;12.10;;;;;;;20.59;63.17;99225.21;124944;1093;64248;-81
2021/06/07 04:20:28;;;;;;;14.47;13.17;;;;;;;20.41;63.34;99219.83;124915;1093;64306;-81
2021/06/07 04:22:56;;;;;;;14.13;12.87;;;;;;;20.76;62.40;99221.55;124965;1093;64271;-80
2021/06/07 04:25:26;;;;;;;13.93;12.73;;;;;;;21.17;61.00;99228.97;124919;1092;64287;-81
2021/06/07 04:27:54;;;;;;;;;;;;;;;21.58;60.22;99229.11;124966;1093;64234;-80
2021/06/07 04:30:23;;;;;;;13.03;11.83;;;;;;;22.05;59.55;99233.88;124909;1093;64269;-80
2021/06/07 04:32:52;;;;;;;14.23;12.93;;;;;;;22.62;58.14;99224.80;124865;1093;64798;-80
2021/06/07 04:35:21;;;;;;;13.30;12.10;;;;;;;23.02;57.29;99236.60;124974;1093;64360;-81
2021/06/07 04:37:53;;;;;;;14.50;13.07;;;;;;;23.39;56.36;99223.13;124909;1093;64246;-80
2021/06/07 04:40:25;;;;;;;14.03;12.73;;;;;;;23.76;55.57;99228.88;124961;1093;64303;-80
2021/06/07 04:42:53;;;;;;;13.65;12.20;;;;;;;24.03;54.91;99217.40;125114;1092;64349;-80
2021/06/07 04:45:22;;;;;;;14.43;13.10;;;;;;;24.42;54.02;99223.68;124894;1093;64268;-80
2021/06/07 04:47:51;;;;;;;13.70;12.20;;;;;;;24.74;53.72;99228.79;125013;1093;64290;-80
2021/06/07 04:50:22;;;;;;;13.73;12.53;;;;;;;25.15;52.61;99217.41;124946;1093;64241;-81
2021/06/07 04:55:28;;;;;;;14.17;12.43;;;;;;;25.43;50.85;99226.75;125133;1093;64399;-82
2021/06/07 04:57:57;;;;;;;14.37;13.07;;;;;;;25.55;50.49;99228.78;125430;1093;64287;-82
2021/06/07 05:00:25;;;;;;;14.17;13.07;;;;;;;25.88;50.17;99230.17;124947;1093;65737;-81
2021/06/07 05:02:53;;;;;;;13.90;12.73;;;;;;;26.27;48.97;99230.52;124895;1093;64272;-82
2021/06/07 05:05:21;;;;;;;13.63;12.33;;;;;;;26.44;48.41;99236.54;124733;1093;64284;-81
2021/06/07 05:07:50;;;;;;;13.57;12.37;;;;;;;26.52;47.16;99232.84;124937;1093;64382;-82
2021/06/07 05:10:18;;;;;;;18.18;16.40;;;;;;;26.49;47.11;99236.79;124924;1093;64285;-81
2021/06/07 05:12:45;;;;;;;27.60;21.60;;;;;;;26.51;46.60;99244.77;124917;1093;64316;-81
2021/06/07 05:15:14;;;;;;;23.47;21.07;;;;;;;26.27;46.08;99241.44;124717;1093;64247;-81
2021/06/07 05:17:42;;;;;;;23.37;20.77;;;;;;;26.26;46.28;99245.23;124949;1093;64242;-80
2021/06/07 05:20:13;;;;;;;22.65;20.30;;;;;;;26.34;46.34;99246.97;124945;1093;64281;-81
2021/06/07 05:22:41;;;;;;;23.70;20.50;;;;;;;26.48;46.36;99248.75;124923;1092;64206;-81
2021/06/07 05:25:09;;;;;;;22.93;20.50;;;;;;;26.50;45.37;99252.13;125019;1093;64348;-81
2021/06/07 05:27:37;;;;;;;23.53;21.00;;;;;;;26.36;45.61;99253.09;125023;1093;64264;-81
2021/06/07 05:30:06;;;;;;;21.07;18.90;;;;;;;26.43;46.44;99248.50;124755;1093;64274;-82
2021/06/07 05:32:34;;;;;;;20.17;18.10;;;;;;;26.63;46.38;99251.41;124901;1093;64335;-81
2021/06/07 05:35:04;;;;;;;17.03;15.37;;;;;;;26.80;45.58;99249.19;125046;1093;64214;-81
2021/06/07 05:37:31;;;;;;;14.80;13.40;;;;;;;26.79;44.84;99249.41;125284;1093;64233;-81
2021/06/07 05:39:58;;;;;;;15.23;13.93;;;;;;;26.75;44.87;99243.48;124872;1092;64252;-81
2021/06/07 05:42:27;;;;;;;14.80;13.30;;;;;;;26.84;44.59;99255.96;124835;1093;64347;-82
2021/06/07 05:44:54;;;;;;;14.13;12.87;;;;;;;26.91;44.56;99259.59;124862;1093;64271;-82
2021/06/07 05:47:22;;;;;;;14.57;13.33;;;;;;;27.00;44.28;99254.78;124910;1093;64284;-82
2021/06/07 05:49:49;;;;;;;16.93;13.07;;;;;;;27.27;44.42;99257.67;124749;1093;64306;-82
2021/06/07 05:52:17;;;;;;;14.40;13.00;;;;;;;27.03;44.50;99259.01;124921;1093;64287;-82
2021/06/07 05:54:44;;;;;;;13.73;12.20;;;;;;;27.01;44.71;99263.83;124823;1093;64399;-81
2021/06/07 05:57:11;;;;;;;13.20;11.93;;;;;;;27.05;44.36;99260.49;124884;1091;64438;-82
2021/06/07 05:59:39;;;;;;;10.27;9.37;;;;;;;27.16;43.45;99261.81;124939;1093;65897;-81
2021/06/07 06:02:07;;;;;;;10.13;9.13;;;;;;;27.26;43.33;99262.31;124867;1093;64328;-81
2021/06/07 06:04:35;;;;;;;10.18;9.28;;;;;;;27.43;42.90;99261.94;124818;1093;64271;-81
2021/06/07 06:07:04;;;;;;;10.37;9.40;;;;;;;27.52;43.17;99258.83;124819;1093;64413;-82
2021/06/07 06:09:32;;;;;;;11.28;10.10;;;;;;;27.64;42.36;99261.80;124870;1093;64284;-82
2021/06/07 06:11:59;;;;;;;10.07;9.07;;;;;;;27.62;41.87;99255.70;124887;1093;64279;-82
2021/06/07 06:14:28;;;;;;;9.50;8.80;;;;;;;27.65;42.26;99246.20;124882;1093;64290;-83
2021/06/07 06:16:55;;;;;;;11.37;10.13;;;;;;;27.73;42.28;99255.09;124875;1092;64191;-82
2021/06/07 06:19:23;;;;;;;11.87;10.67;;;;;;;27.99;42.39;99256.22;124874;1093;64283;-82
2021/06/07 06:21:51;;;;;;;10.70;9.70;;;;;;;28.12;42.01;99252.63;124890;1092;64246;-82
2021/06/07 06:24:19;;;;;;;10.63;9.60;;;;;;;28.18;41.82;99252.64;124953;1093;64268;-84
2021/06/07 06:26:47;;;;;;;7.83;7.03;;;;;;;28.42;40.62;99261.28;124848;1093;64274;-83
2021/06/07 06:29:14;;;;;;;9.07;8.17;;;;;;;28.49;40.63;99262.16;124833;1093;64294;-81
2021/06/07 06:31:41;;;;;;;11.63;10.63;;;;;;;28.33;39.55;99255.19;124898;1093;64281;-82
2021/06/07 06:34:09;;;;;;;10.23;9.23;;;;;;;28.26;40.14;99258.98;124861;1093;64421;-82
2021/06/07 06:36:37;;;;;;;10.20;9.27;;;;;;;28.07;39.71;99250.54;124912;1093;64271;-82
2021/06/07 06:39:05;;;;;;;8.83;8.03;;;;;;;28.07;40.05;99257.89;124913;1093;64216;-82
2021/06/07 06:41:34;;;;;;;8.40;7.50;;;;;;;28.12;40.46;99256.23;124982;1093;64322;-82
2021/06/07 06:44:04;;;;;;;8.28;7.58;;;;;;;28.20;40.23;99263.38;124839;1093;64309;-83
2021/06/07 06:46:31;;;;;;;8.50;7.60;;;;;;;28.18;39.07;99262.77;124916;1093;64274;-82
2021/06/07 06:49:00;;;;;;;8.30;7.43;;;;;;;27.79;38.99;99265.20;124838;1093;64380;-82
2021/06/07 06:51:28;;;;;;;9.75;7.50;;;;;;;27.54;39.60;99272.29;124942;1092;64281;-81
2021/06/07 06:53:56;;;;;;;8.93;8.07;;;;;;;27.39;39.61;99269.73;124877;1093;64264;-84
2021/06/07 06:56:23;;;;;;;7.75;7.05;;;;;;;27.46;40.22;99267.88;124876;1093;64284;-82
2021/06/07 06:58:51;;;;;;;7.45;6.80;;;;;;;27.46;39.92;99278.82;124864;1093;64287;-82
2021/06/07 07:01:18;;;;;;;7.33;6.50;;;;;;;27.40;40.58;99271.41;124899;1093;64287;-82
2021/06/07 07:03:47;;;;;;;8.37;6.70;;;;;;;27.33;40.77;99286.95;124859;1093;64284;-82
2021/06/07 07:06:14;;;;;;;7.07;6.37;;;;;;;27.35;40.90;99279.39;124918;1093;64224;-81
2021/06/07 07:08:41;;;;;;;7.90;6.50;;;;;;;27.57;40.75;99274.64;124851;1093;64289;-82
2021/06/07 07:11:11;;;;;;;7.87;7.10;;;;;;;27.69;40.20;99278.45;124830;1093;64403;-82
2021/06/07 07:13:39;;;;;;;8.20;6.90;;;;;;;27.76;40.07;99279.31;124872;1093;64319;-82
2021/06/07 07:16:06;;;;;;;8.20;6.10;;;;;;;27.92;39.95;99274.54;124885;1093;64284;-82
2021/06/07 07:18:33;;;;;;;8.20;6.83;;;;;;;27.93;38.73;99282.53;124858;1092;64295;-80
2021/06/07 07:21:01;;;;;;;9.67;6.73;;;;;;;27.60;39.71;99290.66;124866;1093;64194;-81
2021/06/07 07:23:28;;;;;;;7.90;6.73;;;;;;;27.51;39.96;99284.50;124837;1093;64365;-81
2021/06/07 07:25:56;;;;;;;7.43;6.67;;;;;;;27.49;40.10;99289.36;124836;1092;64312;-82
2021/06/07 07:28:23;;;;;;;8.57;6.10;;;;;;;27.41;40.55;99288.67;124887;1093;64188;-82
2021/06/07 07:30:50;;;;;;;8.70;6.60;;;;;;;27.26;41.32;99280.63;124873;1093;64271;-82
2021/06/07 07:33:18;;;;;;;6.30;5.70;;;;;;;27.20;40.96;99289.63;124867;1093;64264;-82
2021/06/07 07:35:46;;;;;;;7.77;6.93;;;;;;;26.95;40.12;99290.11;124919;1093;64401;-81
2021/06/07 07:38:13;;;;;;;10.00;6.57;;;;;;;26.74;40.33;99290.19;124933;1093;64293;-82
2021/06/07 07:40:41;;;;;;;9.03;7.10;;;;;;;26.57;40.46;99281.42;124927;1093;64618;-81
2021/06/07 07:43:10;;;;;;;8.47;6.37;;;;;;;26.46;40.94;99278.19;124954;1093;64241;-83
2021/06/07 07:45:38;;;;;;;9.53;7.53;;;;;;;26.42;40.93;99292.44;124896;1093;64210;-83
2021/06/07 07:48:08;;;;;;;10.97;6.70;;;;;;;26.28;40.82;99292.33;124797;1092;64348;-84
2021/06/07 07:50:37;;;;;;;9.03;6.77;;;;;;;26.11;40.68;99279.97;124893;1093;64373;-83
2021/06/07 07:53:05;;;;;;;10.60;6.40;;;;;;;26.05;41.64;99278.88;124930;1093;64281;-84
2021/06/07 07:55:34;;;;;;;7.80;6.40;;;;;;;26.01;40.57;99283.06;124982;1093;64193;-83
2021/06/07 07:58:04;;;;;;;8.83;6.77;;;;;;;25.94;41.55;99282.14;124971;1093;64255;-83
2021/06/07 08:00:32;;;;;;;10.80;7.20;;;;;;;26.00;41.36;99277.78;124970;1092;64265;-83
2021/06/07 08:02:59;;;;;;;7.43;6.43;;;;;;;25.93;40.21;99285.89;124858;1093;64290;-85
2021/06/07 08:05:28;;;;;;;5.13;4.27;;;;;;;25.78;38.48;99279.64;124877;1093;64273;-83
2021/06/07 08:07:56;;;;;;;4.33;4.03;;;;;;;25.71;37.88;99278.70;124966;1093;64470;-84
2021/06/07 08:10:24;;;;;;;4.70;3.50;;;;;;;25.75;37.71;99278.14;124938;1093;64517;-83
2021/06/07 08:12:52;;;;;;;4.40;4.00;;;;;;;25.77;36.87;99278.77;124900;1093;64334;-83
2021/06/07 08:15:19;;;;;;;4.70;4.30;;;;;;;25.73;37.06;99276.64;124888;1093;64290;-84
2021/06/07 08:17:48;;;;;;;4.97;4.47;;;;;;;25.78;37.25;99272.28;124894;1093;64268;-82
2021/06/07 08:20:17;;;;;;;5.07;4.43;;;;;;;25.82;36.45;99268.11;124869;1093;64188;-79
2021/06/07 08:22:50;;;;;;;5.27;4.20;;;;;;;25.77;36.14;99276.03;124899;1093;64403;-80
2021/06/07 08:25:19;;;;;;;4.80;4.30;;;;;;;25.77;35.78;99276.03;124935;1091;64305;-78
2021/06/07 08:27:47;;;;;;;6.73;4.25;;;;;;;25.82;36.59;99276.30;124899;1093;64370;-79
2021/06/07 08:30:17;;;;;;;10.33;4.00;;;;;;;25.94;35.97;99275.84;124873;1093;64242;-79
2021/06/07 08:32:44;;;;;;;6.37;4.07;;;;;;;25.97;34.92;99269.98;124892;1093;64264;-80
2021/06/07 08:35:13;;;;;;;5.60;4.30;;;;;;;25.88;33.22;99273.86;124809;1093;64470;-79
2021/06/07 08:37:41;;;;;;;5.23;4.73;;;;;;;25.63;33.34;99277.78;124943;1093;64191;-79
2021/06/07 08:40:11;;;;;;;4.73;3.37;;;;;;;25.59;33.66;99272.89;124858;1093;64274;-80
2021/06/07 08:42:43;;;;;;;3.83;3.43;;;;;;;25.73;33.22;99277.48;124851;1093;64273;-80
2021/06/07 08:45:14;;;;;;;4.40;4.00;;;;;;;25.63;33.30;99272.32;124955;1093;64284;-79
2021/06/07 08:47:43;;;;;;;5.50;3.90;;;;;;;25.74;32.65;99270.97;124838;1093;64293;-78
2021/06/07 08:50:11;;;;;;;5.45;3.60;;;;;;;25.81;32.00;99280.08;124891;1093;64275;-78
2021/06/07 08:52:43;;;;;;;4.87;4.13;;;;;;;25.85;31.92;99272.37;124863;1093;64287;-79
2021/06/07 08:55:13;;;;;;;6.13;3.87;;;;;;;25.87;31.27;99263.99;124848;1093;64194;-79
2021/06/07 08:57:43;;;;;;;4.67;3.57;;;;;;;25.53;31.85;99273.67;124817;1093;64287;-80
2021/06/07 09:00:14;;;;;;;4.50;3.77;;;;;;;25.16;32.69;99272.80;124810;1093;64223;-78
2021/06/07 09:02:43;;;;;;;5.93;3.90;;;;;;;24.85;32.87;99275.70;124953;1093;64303;-80
2021/06/07 09:05:12;;;;;;;4.40;3.90;;;;;;;24.68;33.75;99280.50;124879;1093;64302;-79
2021/06/07 09:08:07;;;;;;;4.27;3.90;;;;;;;24.82;33.80;99267.91;124865;1093;64268;-80
2021/06/07 09:10:37;;;;;;;4.07;3.43;;;;;;;25.28;33.16;99262.27;124904;1092;64335;-79
2021/06/07 09:13:08;;;;;;;6.37;3.70;;;;;;;25.70;32.66;99258.76;124673;1093;64264;-80
2021/06/07 09:15:44;;;;;;;5.63;3.43;;;;;;;26.09;32.29;99265.66;124864;1093;64399;-80
2021/06/07 09:18:28;;;;;;;5.67;3.87;;;;;;;26.17;32.23;99270.14;124904;1093;64284;-79
2021/06/07 09:21:03;;;;;;;6.43;4.20;;;;;;;25.77;32.10;99267.00;124866;1093;64316;-80
2021/06/07 09:23:48;;;;;;;6.53;4.23;;;;;;;25.45;31.58;99281.98;124855;1093;64290;-79
2021/06/07 09:26:26;;;;;;;5.93;4.60;;;;;;;25.33;32.51;99265.23;124753;1093;64312;-79
2021/06/07 09:28:55;;;;;;;9.57;4.10;;;;;;;25.49;32.42;99269.63;124790;1092;64367;-79
2021/06/07 09:31:35;;;;;;;6.15;4.05;;;;;;;25.69;33.02;99267.97;124802;1093;64274;-79
2021/06/07 09:34:06;;;;;;;;;;;;;;;25.82;31.93;99272.73;124932;1091;64287;-80
2021/06/07 09:36:44;;;;;;;7.30;4.60;;;;;;;25.93;32.23;99269.50;124866;1093;64325;-79
2021/06/07 09:39:23;;;;;;;5.13;3.83;;;;;;;26.06;32.02;99271.52;124855;1093;64351;-79
2021/06/07 09:42:00;;;;;;;5.47;3.90;;;;;;;26.20;30.85;99267.05;124917;1093;64290;-80
2021/06/07 09:44:46;;;;;;;4.77;4.20;;;;;;;26.30;31.53;99255.76;124883;1093;64290;-80
2021/06/07 09:47:14;;;;;;;5.03;3.57;;;;;;;26.50;31.57;99254.86;124856;1093;64271;-80
2021/06/07 09:49:59;;;;;;;3.30;3.00;;;;;;;26.63;31.28;99254.15;124846;1093;64281;-79
2021/06/07 09:52:48;;;;;;;5.30;3.50;;;;;;;26.74;30.96;99255.48;124911;1093;64383;-79
2021/06/07 09:55:22;;;;;;;;;;;;;;;26.80;30.33;99237.42;124928;1093;64268;-80
2021/06/07 09:57:57;;;;;;;4.63;3.03;;;;;;;26.89;30.42;99230.75;124826;1093;64290;-79
2021/06/07 10:00:47;;;;;;;5.07;3.63;;;;;;;26.88;29.15;99245.45;124794;1093;64271;-79
2021/06/07 10:03:29;;;;;;;5.67;3.63;;;;;;;26.76;29.25;99238.88;124839;1093;64264;-79
2021/06/07 10:06:00;;;;;;;3.43;3.13;;;;;;;26.69;29.01;99238.83;124778;1093;64490;-78
2021/06/07 10:08:42;;;;;;;5.13;3.10;;;;;;;26.67;28.99;99233.58;124886;1093;64313;-78
2021/06/07 10:11:21;;;;;;;3.73;3.43;;;;;;;26.75;29.36;99237.17;124864;1093;64312;-79
2021/06/07 10:13:49;;;;;;;6.60;3.80;;;;;;;26.72;29.11;99241.16;124893;1093;64362;-79
2021/06/07 10:16:17;;;;;;;4.63;3.80;;;;;;;26.68;28.92;99237.98;124838;1093;64280;-79
2021/06/07 10:18:44;;;;;;;3.73;3.43;;;;;;;26.62;28.58;99240.66;124839;1093;64310;-79
2021/06/07 10:21:11;;;;;;;4.00;3.53;;;;;;;26.61;28.71;99238.98;124764;1093;64438;-80
2021/06/07 10:23:39;;;;;;;3.60;3.30;;;;;;;26.60;28.54;99232.69;124785;1093;64287;-80
2021/06/07 10:26:07;;;;;;;3.90;3.60;;;;;;;26.57;28.19;99241.29;124811;1093;64287;-80
2021/06/07 10:28:47;;;;;;;4.47;3.60;;;;;;;26.62;28.23;99227.87;124845;1093;64243;-81
2021/06/07 10:31:17;;;;;;;4.75;3.10;;;;;;;26.80;28.41;99229.21;124831;1093;64444;-79
2021/06/07 10:33:59;;;;;;;4.37;3.30;;;;;;;26.86;28.43;99236.63;125137;1093;64272;-81
2021/06/07 10:36:26;;;;;;;3.13;2.83;;;;;;;26.80;27.10;99231.95;125255;1093;64277;-79
2021/06/07 10:39:13;;;;;;;5.17;3.40;;;;;;;26.70;27.86;99230.44;125144;1093;64609;-79
2021/06/07 10:42:06;;;;;;;3.63;3.33;;;;;;;26.75;28.12;99234.44;125124;1093;64285;-79
2021/06/07 10:44:45;;;;;;;3.50;2.83;;;;;;;26.80;26.93;99226.48;124797;1093;64366;-78
2021/06/07 10:47:18;;;;;;;;;;;;;;;26.94;27.73;99225.52;124853;1093;64612;-78
2021/06/07 10:49:50;;;;;;;4.37;3.03;;;;;;;26.97;27.59;99227.00;124773;1093;64265;-79
2021/06/07 10:52:19;;;;;;;3.87;3.50;;;;;;;27.07;27.40;99214.63;124811;1093;64237;-78
2021/06/07 10:54:57;;;;;;;3.83;3.40;;;;;;;27.11;27.06;99224.11;124820;1093;64268;-79
2021/06/07 10:57:44;;;;;;;5.25;3.60;;;;;;;26.88;26.57;99221.70;124767;1093;64321;-79
2021/06/07 11:00:23;;;;;;;4.20;3.80;;;;;;;26.86;26.60;99220.22;124902;1093;64306;-79
2021/06/07 11:02:53;;;;;;;6.00;3.88;;;;;;;27.04;27.31;99222.39;124849;1093;64364;-79
2021/06/07 11:05:32;;;;;;;4.50;3.67;;;;;;;27.23;28.50;99212.63;124854;1092;64287;-79
2021/06/07 11:08:05;;;;;;;7.00;4.13;;;;;;;27.36;27.89;99220.88;124819;1093;64268;-80
2021/06/07 11:10:36;;;;;;;4.90;3.25;;;;;;;27.33;27.62;99213.05;124795;1093;64386;-79
2021/06/07 11:13:08;;;;;;;5.57;3.90;;;;;;;27.15;27.10;99206.25;124804;1092;64501;-79
2021/06/07 11:15:42;;;;;;;5.73;3.67;;;;;;;26.84;26.86;99205.90;124818;1093;64267;-79
2021/06/07 11:18:27;;;;;;;3.63;3.33;;;;;;;26.57;26.24;99207.61;124920;1093;64287;-79
2021/06/07 11:21:21;;;;;;;3.47;3.17;;;;;;;26.66;26.56;99210.00;124837;1093;64254;-79
2021/06/07 11:23:48;;;;;;;3.43;3.13;;;;;;;26.98;26.81;99199.42;124758;1092;64299;-79
2021/06/07 11:26:36;;;;;;;4.33;3.23;;;;;;;27.15;26.79;99200.77;124790;1093;64408;-78
2021/06/07 11:29:03;;;;;;;4.70;3.20;;;;;;;27.34;27.42;99188.23;124825;1093;64295;-79
2021/06/07 11:31:33;;;;;;;6.90;3.60;;;;;;;27.39;26.53;99190.36;124800;1093;64220;-79
2021/06/07 11:34:09;;;;;;;3.67;3.13;;;;;;;27.53;27.42;99185.74;124830;1093;64396;-77
2021/06/07 11:36:37;;;;;;;5.90;3.50;;;;;;;27.77;26.53;99187.04;124897;1093;64341;-78